sensor_id;sensor_type;location;lat;lon;timestamp;temperature;humidity
21353;DHT22;10834;52.268;6.770;2023-05-10T00:02:16;14.00;99.90
21353;DHT22;10834;52.268;6.770;2023-05-10T00:05:02;13.90;99.90
21353;DHT22;10834;52.268;6.770;2023-05-10T00:07:48;13.90;99.90
21353;DHT22;10834;52.268;6.770;2023-05-10T00:10:34;13.80;99.90
21353;DHT22;10834;52.268;6.770;2023-05-10T00:13:20;13.80;99.90
21353;DHT22;10834;52.268;6.770;2023-05-10T00:16:06;13.70;99.90
21353;DHT22;10834;52.268;6.770;2023-05-10T00:18:52;13.70;99.90
21353;DHT22;10834;52.268;6.770;2023-05-10T00:21:38;13.70;99.90
21353;DHT22;10834;52.268;6.770;2023-05-10T00:24:24;13.60;99.90
21353;DHT22;10834;52.268;6.770;2023-05-10T00:27:11;13.60;99.90
21353;DHT22;10834;52.268;6.770;2023-05-10T00:29:57;13.60;99.90
21353;DHT22;10834;52.268;6.770;2023-05-10T00:32:43;13.50;99.90
21353;DHT22;10834;52.268;6.770;2023-05-10T00:35:29;13.50;99.90
21353;DHT22;10834;52.268;6.770;2023-05-10T00:38:15;13.50;99.90
21353;DHT22;10834;52.268;6.770;2023-05-10T00:41:01;13.40;99.90
21353;DHT22;10834;52.268;6.770;2023-05-10T00:43:47;13.40;99.90
21353;DHT22;10834;52.268;6.770;2023-05-10T00:46:34;13.40;99.90
21353;DHT22;10834;52.268;6.770;2023-05-10T00:49:20;13.40;99.90
21353;DHT22;10834;52.268;6.770;2023-05-10T00:52:07;13.30;99.90
21353;DHT22;10834;52.268;6.770;2023-05-10T00:54:54;13.30;99.90
21353;DHT22;10834;52.268;6.770;2023-05-10T00:57:41;13.30;99.90
21353;DHT22;10834;52.268;6.770;2023-05-10T01:00:28;13.30;99.90
21353;DHT22;10834;52.268;6.770;2023-05-10T01:03:15;13.30;99.90
21353;DHT22;10834;52.268;6.770;2023-05-10T01:06:01;13.30;99.90
21353;DHT22;10834;52.268;6.770;2023-05-10T01:08:47;13.30;99.90
21353;DHT22;10834;52.268;6.770;2023-05-10T01:11:35;13.20;99.90
21353;DHT22;10834;52.268;6.770;2023-05-10T01:14:22;13.20;99.90
21353;DHT22;10834;52.268;6.770;2023-05-10T01:17:10;13.20;99.90
21353;DHT22;10834;52.268;6.770;2023-05-10T01:19:56;13.20;99.90
21353;DHT22;10834;52.268;6.770;2023-05-10T01:29:24;13.20;99.90
21353;DHT22;10834;52.268;6.770;2023-05-10T01:32:54;13.10;99.90
21353;DHT22;10834;52.268;6.770;2023-05-10T01:35:58;13.10;99.90
21353;DHT22;10834;52.268;6.770;2023-05-10T01:39:02;13.10;99.90
21353;DHT22;10834;52.268;6.770;2023-05-10T01:42:31;13.10;99.90
21353;DHT22;10834;52.268;6.770;2023-05-10T01:45:28;13.10;99.90
21353;DHT22;10834;52.268;6.770;2023-05-10T01:48:17;13.10;99.90
21353;DHT22;10834;52.268;6.770;2023-05-10T01:51:06;13.10;99.90
21353;DHT22;10834;52.268;6.770;2023-05-10T01:54:01;13.10;99.90
21353;DHT22;10834;52.268;6.770;2023-05-10T01:56:52;13.10;99.90
21353;DHT22;10834;52.268;6.770;2023-05-10T02:05:48;13.00;99.90
21353;DHT22;10834;52.268;6.770;2023-05-10T02:08:35;13.00;99.90
21353;DHT22;10834;52.268;6.770;2023-05-10T02:11:23;13.00;99.90
21353;DHT22;10834;52.268;6.770;2023-05-10T02:14:11;13.00;99.90
21353;DHT22;10834;52.268;6.770;2023-05-10T02:16:59;13.00;99.90
21353;DHT22;10834;52.268;6.770;2023-05-10T02:19:47;13.00;99.90
21353;DHT22;10834;52.268;6.770;2023-05-10T02:22:35;13.00;99.90
21353;DHT22;10834;52.268;6.770;2023-05-10T02:25:22;13.00;99.90
21353;DHT22;10834;52.268;6.770;2023-05-10T02:28:10;13.00;99.90
21353;DHT22;10834;52.268;6.770;2023-05-10T02:30:57;13.00;99.90
21353;DHT22;10834;52.268;6.770;2023-05-10T02:33:44;13.00;99.90
21353;DHT22;10834;52.268;6.770;2023-05-10T02:36:31;13.00;99.90
21353;DHT22;10834;52.268;6.770;2023-05-10T02:39:19;13.00;99.90
21353;DHT22;10834;52.268;6.770;2023-05-10T02:42:06;13.00;99.90
21353;DHT22;10834;52.268;6.770;2023-05-10T02:45:01;13.00;99.90
21353;DHT22;10834;52.268;6.770;2023-05-10T02:47:48;13.00;99.90
21353;DHT22;10834;52.268;6.770;2023-05-10T02:50:35;13.00;99.90
21353;DHT22;10834;52.268;6.770;2023-05-10T02:53:30;13.00;99.90
21353;DHT22;10834;52.268;6.770;2023-05-10T02:56:25;13.00;99.90
21353;DHT22;10834;52.268;6.770;2023-05-10T02:59:11;12.90;99.90
21353;DHT22;10834;52.268;6.770;2023-05-10T03:01:57;12.90;99.90
21353;DHT22;10834;52.268;6.770;2023-05-10T03:04:44;12.90;99.90
21353;DHT22;10834;52.268;6.770;2023-05-10T03:07:30;12.90;99.90
21353;DHT22;10834;52.268;6.770;2023-05-10T03:10:16;12.90;99.90
21353;DHT22;10834;52.268;6.770;2023-05-10T03:13:17;12.90;99.90
21353;DHT22;10834;52.268;6.770;2023-05-10T03:16:12;12.90;99.90
21353;DHT22;10834;52.268;6.770;2023-05-10T03:19:24;12.90;99.90
21353;DHT22;10834;52.268;6.770;2023-05-10T03:22:13;12.90;99.90
21353;DHT22;10834;52.268;6.770;2023-05-10T03:25:05;12.90;99.90
21353;DHT22;10834;52.268;6.770;2023-05-10T03:27:52;12.90;99.90
21353;DHT22;10834;52.268;6.770;2023-05-10T03:30:39;12.90;99.90
21353;DHT22;10834;52.268;6.770;2023-05-10T03:33:26;12.90;99.90
21353;DHT22;10834;52.268;6.770;2023-05-10T03:36:12;12.90;99.90
21353;DHT22;10834;52.268;6.770;2023-05-10T03:38:59;12.90;99.90
21353;DHT22;10834;52.268;6.770;2023-05-10T03:41:44;12.90;99.90
21353;DHT22;10834;52.268;6.770;2023-05-10T03:44:31;13.00;99.90
21353;DHT22;10834;52.268;6.770;2023-05-10T03:47:18;12.90;99.90
21353;DHT22;10834;52.268;6.770;2023-05-10T03:50:05;13.00;99.90
21353;DHT22;10834;52.268;6.770;2023-05-10T03:52:51;13.00;99.90
21353;DHT22;10834;52.268;6.770;2023-05-10T03:55:37;13.00;99.90
21353;DHT22;10834;52.268;6.770;2023-05-10T03:58:24;13.00;99.90
21353;DHT22;10834;52.268;6.770;2023-05-10T04:01:10;13.00;99.90
21353;DHT22;10834;52.268;6.770;2023-05-10T04:03:56;13.00;99.90
21353;DHT22;10834;52.268;6.770;2023-05-10T04:06:42;13.10;99.90
21353;DHT22;10834;52.268;6.770;2023-05-10T04:09:28;13.00;99.90
21353;DHT22;10834;52.268;6.770;2023-05-10T04:12:14;13.00;99.90
21353;DHT22;10834;52.268;6.770;2023-05-10T04:15:00;13.10;99.90
21353;DHT22;10834;52.268;6.770;2023-05-10T04:17:46;13.10;99.90
21353;DHT22;10834;52.268;6.770;2023-05-10T04:20:32;13.10;99.90
21353;DHT22;10834;52.268;6.770;2023-05-10T04:23:19;13.10;99.90
21353;DHT22;10834;52.268;6.770;2023-05-10T04:26:05;13.20;99.90
21353;DHT22;10834;52.268;6.770;2023-05-10T04:28:51;13.20;99.90
21353;DHT22;10834;52.268;6.770;2023-05-10T04:31:37;13.20;99.90
21353;DHT22;10834;52.268;6.770;2023-05-10T04:34:23;13.20;99.90
21353;DHT22;10834;52.268;6.770;2023-05-10T04:37:09;13.20;99.90
21353;DHT22;10834;52.268;6.770;2023-05-10T04:39:55;13.20;99.90
21353;DHT22;10834;52.268;6.770;2023-05-10T04:42:41;13.20;99.90
21353;DHT22;10834;52.268;6.770;2023-05-10T04:45:27;13.20;99.90
21353;DHT22;10834;52.268;6.770;2023-05-10T04:48:13;13.20;99.90
21353;DHT22;10834;52.268;6.770;2023-05-10T04:50:59;13.30;99.90
21353;DHT22;10834;52.268;6.770;2023-05-10T04:53:45;13.30;99.90
21353;DHT22;10834;52.268;6.770;2023-05-10T05:00:29;13.30;99.90
21353;DHT22;10834;52.268;6.770;2023-05-10T05:03:15;13.40;99.90
21353;DHT22;10834;52.268;6.770;2023-05-10T05:06:01;13.40;99.90
21353;DHT22;10834;52.268;6.770;2023-05-10T05:08:47;13.40;99.90
21353;DHT22;10834;52.268;6.770;2023-05-10T05:11:34;13.40;99.90
21353;DHT22;10834;52.268;6.770;2023-05-10T05:14:21;13.50;99.90
21353;DHT22;10834;52.268;6.770;2023-05-10T05:17:07;13.50;99.90
21353;DHT22;10834;52.268;6.770;2023-05-10T05:19:53;13.50;99.90
21353;DHT22;10834;52.268;6.770;2023-05-10T05:22:39;13.60;99.90
21353;DHT22;10834;52.268;6.770;2023-05-10T05:25:26;13.60;99.90
21353;DHT22;10834;52.268;6.770;2023-05-10T05:28:12;13.60;99.90
21353;DHT22;10834;52.268;6.770;2023-05-10T05:30:58;13.60;99.90
21353;DHT22;10834;52.268;6.770;2023-05-10T05:33:44;13.60;99.90
21353;DHT22;10834;52.268;6.770;2023-05-10T05:36:30;13.70;99.90
21353;DHT22;10834;52.268;6.770;2023-05-10T05:39:17;13.70;99.90
21353;DHT22;10834;52.268;6.770;2023-05-10T05:42:03;13.70;99.90
21353;DHT22;10834;52.268;6.770;2023-05-10T05:44:49;13.70;99.90
21353;DHT22;10834;52.268;6.770;2023-05-10T05:47:35;13.80;99.90
21353;DHT22;10834;52.268;6.770;2023-05-10T05:50:21;13.90;99.90
21353;DHT22;10834;52.268;6.770;2023-05-10T05:53:08;14.00;99.90
21353;DHT22;10834;52.268;6.770;2023-05-10T05:55:55;14.00;99.90
21353;DHT22;10834;52.268;6.770;2023-05-10T05:58:42;14.00;99.90
21353;DHT22;10834;52.268;6.770;2023-05-10T06:01:28;14.00;99.90
21353;DHT22;10834;52.268;6.770;2023-05-10T06:04:14;14.00;99.90
21353;DHT22;10834;52.268;6.770;2023-05-10T06:07:00;14.00;99.90
21353;DHT22;10834;52.268;6.770;2023-05-10T06:09:46;14.00;99.90
21353;DHT22;10834;52.268;6.770;2023-05-10T06:12:32;14.00;99.90
21353;DHT22;10834;52.268;6.770;2023-05-10T06:15:19;14.00;99.90
21353;DHT22;10834;52.268;6.770;2023-05-10T06:18:05;14.00;99.90
21353;DHT22;10834;52.268;6.770;2023-05-10T06:20:51;14.10;99.90
21353;DHT22;10834;52.268;6.770;2023-05-10T06:23:38;14.20;99.90
21353;DHT22;10834;52.268;6.770;2023-05-10T06:26:24;14.20;99.90
21353;DHT22;10834;52.268;6.770;2023-05-10T06:29:10;14.10;99.90
21353;DHT22;10834;52.268;6.770;2023-05-10T06:31:56;14.10;99.90
21353;DHT22;10834;52.268;6.770;2023-05-10T06:34:42;14.00;99.90
21353;DHT22;10834;52.268;6.770;2023-05-10T06:37:29;14.00;99.90
21353;DHT22;10834;52.268;6.770;2023-05-10T06:40:15;14.00;99.90
21353;DHT22;10834;52.268;6.770;2023-05-10T06:43:01;14.00;99.90
21353;DHT22;10834;52.268;6.770;2023-05-10T06:45:48;13.90;99.90
21353;DHT22;10834;52.268;6.770;2023-05-10T06:48:34;13.90;99.90
21353;DHT22;10834;52.268;6.770;2023-05-10T06:51:20;13.90;99.90
21353;DHT22;10834;52.268;6.770;2023-05-10T06:54:07;13.90;99.90
21353;DHT22;10834;52.268;6.770;2023-05-10T06:56:53;13.90;99.90
21353;DHT22;10834;52.268;6.770;2023-05-10T06:59:39;13.90;99.90
21353;DHT22;10834;52.268;6.770;2023-05-10T07:02:25;13.90;99.90
21353;DHT22;10834;52.268;6.770;2023-05-10T07:05:11;13.90;99.90
21353;DHT22;10834;52.268;6.770;2023-05-10T07:07:58;14.00;99.90
21353;DHT22;10834;52.268;6.770;2023-05-10T07:10:44;14.10;99.90
21353;DHT22;10834;52.268;6.770;2023-05-10T07:13:31;14.20;99.90
21353;DHT22;10834;52.268;6.770;2023-05-10T07:16:17;14.40;99.90
21353;DHT22;10834;52.268;6.770;2023-05-10T07:19:03;14.60;99.90
21353;DHT22;10834;52.268;6.770;2023-05-10T07:21:51;14.80;99.90
21353;DHT22;10834;52.268;6.770;2023-05-10T07:24:37;15.00;99.90
21353;DHT22;10834;52.268;6.770;2023-05-10T07:27:23;15.20;99.90
21353;DHT22;10834;52.268;6.770;2023-05-10T07:30:09;15.70;99.90
21353;DHT22;10834;52.268;6.770;2023-05-10T07:32:55;16.30;99.90
21353;DHT22;10834;52.268;6.770;2023-05-10T07:35:42;16.70;99.90
21353;DHT22;10834;52.268;6.770;2023-05-10T07:38:28;16.70;99.90
21353;DHT22;10834;52.268;6.770;2023-05-10T07:41:14;16.60;99.90
21353;DHT22;10834;52.268;6.770;2023-05-10T07:44:00;16.60;99.90
21353;DHT22;10834;52.268;6.770;2023-05-10T07:46:47;16.50;99.90
21353;DHT22;10834;52.268;6.770;2023-05-10T07:49:34;16.40;99.90
21353;DHT22;10834;52.268;6.770;2023-05-10T07:52:19;16.20;99.90
21353;DHT22;10834;52.268;6.770;2023-05-10T07:55:06;15.90;99.90
21353;DHT22;10834;52.268;6.770;2023-05-10T07:57:53;15.70;99.90
21353;DHT22;10834;52.268;6.770;2023-05-10T08:00:39;15.50;99.90
21353;DHT22;10834;52.268;6.770;2023-05-10T08:03:26;15.50;99.90
21353;DHT22;10834;52.268;6.770;2023-05-10T08:06:11;15.60;99.90
21353;DHT22;10834;52.268;6.770;2023-05-10T08:08:58;15.70;99.90
21353;DHT22;10834;52.268;6.770;2023-05-10T08:11:44;15.60;99.90
21353;DHT22;10834;52.268;6.770;2023-05-10T08:14:30;15.50;99.90
21353;DHT22;10834;52.268;6.770;2023-05-10T08:17:16;15.30;99.90
21353;DHT22;10834;52.268;6.770;2023-05-10T08:20:02;15.30;99.90
21353;DHT22;10834;52.268;6.770;2023-05-10T08:22:48;15.40;99.90
21353;DHT22;10834;52.268;6.770;2023-05-10T08:25:34;15.50;99.90
21353;DHT22;10834;52.268;6.770;2023-05-10T08:28:20;15.60;99.90
21353;DHT22;10834;52.268;6.770;2023-05-10T08:31:06;15.60;99.90
21353;DHT22;10834;52.268;6.770;2023-05-10T08:33:52;15.60;99.90
21353;DHT22;10834;52.268;6.770;2023-05-10T08:36:38;15.60;99.90
21353;DHT22;10834;52.268;6.770;2023-05-10T08:39:24;15.70;99.90
21353;DHT22;10834;52.268;6.770;2023-05-10T08:42:11;15.80;99.90
21353;DHT22;10834;52.268;6.770;2023-05-10T08:44:59;15.80;99.90
21353;DHT22;10834;52.268;6.770;2023-05-10T08:47:45;15.90;99.90
21353;DHT22;10834;52.268;6.770;2023-05-10T08:50:32;15.90;99.90
21353;DHT22;10834;52.268;6.770;2023-05-10T08:53:20;15.90;99.90
21353;DHT22;10834;52.268;6.770;2023-05-10T08:56:07;15.90;99.90
21353;DHT22;10834;52.268;6.770;2023-05-10T08:58:53;15.80;99.90
21353;DHT22;10834;52.268;6.770;2023-05-10T09:01:40;15.70;99.90
21353;DHT22;10834;52.268;6.770;2023-05-10T09:04:28;15.60;99.90
21353;DHT22;10834;52.268;6.770;2023-05-10T09:07:15;15.50;99.90
21353;DHT22;10834;52.268;6.770;2023-05-10T09:10:02;15.40;99.90
21353;DHT22;10834;52.268;6.770;2023-05-10T09:12:50;15.30;99.90
21353;DHT22;10834;52.268;6.770;2023-05-10T09:15:37;15.20;99.90
21353;DHT22;10834;52.268;6.770;2023-05-10T09:18:23;15.20;99.90
21353;DHT22;10834;52.268;6.770;2023-05-10T09:21:10;15.30;99.90
21353;DHT22;10834;52.268;6.770;2023-05-10T09:23:56;15.60;99.90
21353;DHT22;10834;52.268;6.770;2023-05-10T09:26:46;15.90;99.90
21353;DHT22;10834;52.268;6.770;2023-05-10T09:29:42;16.20;99.90
21353;DHT22;10834;52.268;6.770;2023-05-10T09:32:47;16.50;99.90
21353;DHT22;10834;52.268;6.770;2023-05-10T09:35:34;16.40;99.90
21353;DHT22;10834;52.268;6.770;2023-05-10T09:38:20;16.30;99.90
21353;DHT22;10834;52.268;6.770;2023-05-10T09:41:16;16.10;99.90
21353;DHT22;10834;52.268;6.770;2023-05-10T09:44:03;16.00;99.90
21353;DHT22;10834;52.268;6.770;2023-05-10T09:46:50;15.80;99.90
21353;DHT22;10834;52.268;6.770;2023-05-10T09:49:37;15.80;99.90
21353;DHT22;10834;52.268;6.770;2023-05-10T09:52:23;15.90;99.90
21353;DHT22;10834;52.268;6.770;2023-05-10T09:55:09;15.80;99.90
21353;DHT22;10834;52.268;6.770;2023-05-10T09:58:00;15.70;99.90
21353;DHT22;10834;52.268;6.770;2023-05-10T10:00:47;15.70;99.90
21353;DHT22;10834;52.268;6.770;2023-05-10T10:03:42;15.80;99.90
21353;DHT22;10834;52.268;6.770;2023-05-10T10:06:28;16.30;99.90
21353;DHT22;10834;52.268;6.770;2023-05-10T10:09:14;17.00;99.90
21353;DHT22;10834;52.268;6.770;2023-05-10T10:12:01;17.30;99.90
21353;DHT22;10834;52.268;6.770;2023-05-10T10:14:48;17.50;99.90
21353;DHT22;10834;52.268;6.770;2023-05-10T10:17:36;17.50;99.90
21353;DHT22;10834;52.268;6.770;2023-05-10T10:20:24;17.50;99.90
21353;DHT22;10834;52.268;6.770;2023-05-10T10:23:10;17.50;99.90
21353;DHT22;10834;52.268;6.770;2023-05-10T10:25:57;17.50;99.90
21353;DHT22;10834;52.268;6.770;2023-05-10T10:35:29;16.80;99.90
21353;DHT22;10834;52.268;6.770;2023-05-10T10:38:16;16.60;99.90
21353;DHT22;10834;52.268;6.770;2023-05-10T10:41:09;16.60;99.90
21353;DHT22;10834;52.268;6.770;2023-05-10T10:50:06;17.00;99.90
21353;DHT22;10834;52.268;6.770;2023-05-10T10:52:53;17.40;99.90
21353;DHT22;10834;52.268;6.770;2023-05-10T10:55:47;17.70;99.90
21353;DHT22;10834;52.268;6.770;2023-05-10T10:58:34;17.90;99.90
21353;DHT22;10834;52.268;6.770;2023-05-10T11:01:21;18.00;99.90
21353;DHT22;10834;52.268;6.770;2023-05-10T11:07:16;19.20;99.90
21353;DHT22;10834;52.268;6.770;2023-05-10T11:10:06;19.70;99.90
21353;DHT22;10834;52.268;6.770;2023-05-10T11:13:03;20.20;99.90
21353;DHT22;10834;52.268;6.770;2023-05-10T11:15:50;20.60;99.90
21353;DHT22;10834;52.268;6.770;2023-05-10T11:18:37;20.70;99.90
21353;DHT22;10834;52.268;6.770;2023-05-10T11:21:23;20.80;99.90
21353;DHT22;10834;52.268;6.770;2023-05-10T11:24:15;21.20;99.90
21353;DHT22;10834;52.268;6.770;2023-05-10T11:27:01;21.80;99.90
21353;DHT22;10834;52.268;6.770;2023-05-10T11:29:51;22.20;99.90
21353;DHT22;10834;52.268;6.770;2023-05-10T11:32:38;22.50;99.90
21353;DHT22;10834;52.268;6.770;2023-05-10T11:35:27;22.50;99.90
21353;DHT22;10834;52.268;6.770;2023-05-10T11:38:13;22.60;99.90
21353;DHT22;10834;52.268;6.770;2023-05-10T11:41:00;22.50;99.90
21353;DHT22;10834;52.268;6.770;2023-05-10T11:43:47;22.00;99.90
21353;DHT22;10834;52.268;6.770;2023-05-10T11:46:36;21.50;99.90
21353;DHT22;10834;52.268;6.770;2023-05-10T11:49:23;21.00;99.90
21353;DHT22;10834;52.268;6.770;2023-05-10T11:52:11;20.60;99.90
21353;DHT22;10834;52.268;6.770;2023-05-10T11:54:57;20.40;99.90
21353;DHT22;10834;52.268;6.770;2023-05-10T11:57:43;20.40;99.90
21353;DHT22;10834;52.268;6.770;2023-05-10T12:00:31;20.30;99.90
21353;DHT22;10834;52.268;6.770;2023-05-10T12:03:18;20.20;99.90
21353;DHT22;10834;52.268;6.770;2023-05-10T12:06:04;19.90;99.90
21353;DHT22;10834;52.268;6.770;2023-05-10T12:08:51;19.70;99.90
21353;DHT22;10834;52.268;6.770;2023-05-10T12:11:40;19.50;99.90
21353;DHT22;10834;52.268;6.770;2023-05-10T12:14:26;19.30;99.90
21353;DHT22;10834;52.268;6.770;2023-05-10T12:17:13;19.20;99.90
21353;DHT22;10834;52.268;6.770;2023-05-10T12:20:13;19.50;99.90
21353;DHT22;10834;52.268;6.770;2023-05-10T12:23:02;19.70;99.90
21353;DHT22;10834;52.268;6.770;2023-05-10T12:25:49;19.60;99.90
21353;DHT22;10834;52.268;6.770;2023-05-10T12:28:35;19.40;99.90
21353;DHT22;10834;52.268;6.770;2023-05-10T12:31:21;19.20;99.90
21353;DHT22;10834;52.268;6.770;2023-05-10T12:34:07;19.10;99.90
21353;DHT22;10834;52.268;6.770;2023-05-10T12:36:54;19.20;99.90
21353;DHT22;10834;52.268;6.770;2023-05-10T12:39:41;19.30;99.90
21353;DHT22;10834;52.268;6.770;2023-05-10T12:42:28;19.60;99.90
21353;DHT22;10834;52.268;6.770;2023-05-10T12:45:14;19.90;99.90
21353;DHT22;10834;52.268;6.770;2023-05-10T12:48:01;20.20;99.90
21353;DHT22;10834;52.268;6.770;2023-05-10T12:50:47;20.40;99.90
21353;DHT22;10834;52.268;6.770;2023-05-10T12:53:33;20.50;99.90
21353;DHT22;10834;52.268;6.770;2023-05-10T12:56:19;20.60;99.90
21353;DHT22;10834;52.268;6.770;2023-05-10T12:59:06;20.70;99.90
21353;DHT22;10834;52.268;6.770;2023-05-10T13:01:52;20.70;99.90
21353;DHT22;10834;52.268;6.770;2023-05-10T13:04:38;20.70;99.90
21353;DHT22;10834;52.268;6.770;2023-05-10T13:07:25;20.50;99.90
21353;DHT22;10834;52.268;6.770;2023-05-10T13:10:11;20.20;99.90
21353;DHT22;10834;52.268;6.770;2023-05-10T13:13:00;19.70;99.90
21353;DHT22;10834;52.268;6.770;2023-05-10T13:15:46;19.30;99.90
21353;DHT22;10834;52.268;6.770;2023-05-10T13:18:32;19.10;99.90
21353;DHT22;10834;52.268;6.770;2023-05-10T13:21:18;19.00;99.90
21353;DHT22;10834;52.268;6.770;2023-05-10T13:24:04;19.00;99.90
21353;DHT22;10834;52.268;6.770;2023-05-10T13:26:51;19.10;99.90
21353;DHT22;10834;52.268;6.770;2023-05-10T13:29:37;19.20;99.90
21353;DHT22;10834;52.268;6.770;2023-05-10T13:32:23;19.50;99.90
21353;DHT22;10834;52.268;6.770;2023-05-10T13:35:09;19.70;99.90
21353;DHT22;10834;52.268;6.770;2023-05-10T13:37:55;20.00;99.90
21353;DHT22;10834;52.268;6.770;2023-05-10T13:40:43;20.10;99.90
21353;DHT22;10834;52.268;6.770;2023-05-10T13:43:29;20.30;99.90
21353;DHT22;10834;52.268;6.770;2023-05-10T13:46:15;20.30;99.90
21353;DHT22;10834;52.268;6.770;2023-05-10T13:49:01;20.40;99.90
21353;DHT22;10834;52.268;6.770;2023-05-10T13:51:47;20.40;99.90
21353;DHT22;10834;52.268;6.770;2023-05-10T13:54:34;20.60;99.90
21353;DHT22;10834;52.268;6.770;2023-05-10T13:57:20;20.60;99.90
21353;DHT22;10834;52.268;6.770;2023-05-10T14:00:07;20.40;99.90
21353;DHT22;10834;52.268;6.770;2023-05-10T14:02:53;20.10;99.90
21353;DHT22;10834;52.268;6.770;2023-05-10T14:05:39;19.80;99.90
21353;DHT22;10834;52.268;6.770;2023-05-10T14:08:25;19.70;99.90
21353;DHT22;10834;52.268;6.770;2023-05-10T14:11:12;19.60;99.90
21353;DHT22;10834;52.268;6.770;2023-05-10T14:13:59;19.50;99.90
21353;DHT22;10834;52.268;6.770;2023-05-10T14:16:45;19.40;99.90
21353;DHT22;10834;52.268;6.770;2023-05-10T14:19:32;19.40;99.90
21353;DHT22;10834;52.268;6.770;2023-05-10T14:22:19;19.50;99.90
21353;DHT22;10834;52.268;6.770;2023-05-10T14:25:05;19.50;99.90
21353;DHT22;10834;52.268;6.770;2023-05-10T14:27:52;19.50;99.90
21353;DHT22;10834;52.268;6.770;2023-05-10T14:30:40;19.50;99.90
21353;DHT22;10834;52.268;6.770;2023-05-10T14:33:26;19.50;99.90
21353;DHT22;10834;52.268;6.770;2023-05-10T14:36:12;19.40;99.90
21353;DHT22;10834;52.268;6.770;2023-05-10T14:38:58;19.30;99.90
21353;DHT22;10834;52.268;6.770;2023-05-10T14:41:45;19.20;99.90
21353;DHT22;10834;52.268;6.770;2023-05-10T14:44:31;19.00;99.90
21353;DHT22;10834;52.268;6.770;2023-05-10T14:47:17;18.80;99.90
21353;DHT22;10834;52.268;6.770;2023-05-10T14:50:03;18.60;99.90
21353;DHT22;10834;52.268;6.770;2023-05-10T14:52:49;18.40;99.90
21353;DHT22;10834;52.268;6.770;2023-05-10T14:55:35;18.20;99.90
21353;DHT22;10834;52.268;6.770;2023-05-10T14:58:22;18.10;99.90
21353;DHT22;10834;52.268;6.770;2023-05-10T15:01:08;18.10;99.90
21353;DHT22;10834;52.268;6.770;2023-05-10T15:03:54;18.20;99.90
21353;DHT22;10834;52.268;6.770;2023-05-10T15:06:40;18.50;99.90
21353;DHT22;10834;52.268;6.770;2023-05-10T15:09:27;18.60;99.90
21353;DHT22;10834;52.268;6.770;2023-05-10T15:12:13;18.80;99.90
21353;DHT22;10834;52.268;6.770;2023-05-10T15:14:59;18.80;99.90
21353;DHT22;10834;52.268;6.770;2023-05-10T15:17:45;18.80;99.90
21353;DHT22;10834;52.268;6.770;2023-05-10T15:20:31;18.80;99.90
21353;DHT22;10834;52.268;6.770;2023-05-10T15:23:18;18.70;99.90
21353;DHT22;10834;52.268;6.770;2023-05-10T15:26:04;18.60;99.90
21353;DHT22;10834;52.268;6.770;2023-05-10T15:28:50;18.40;99.90
21353;DHT22;10834;52.268;6.770;2023-05-10T15:31:36;18.30;99.90
21353;DHT22;10834;52.268;6.770;2023-05-10T15:34:22;18.30;99.90
21353;DHT22;10834;52.268;6.770;2023-05-10T15:37:09;18.30;99.90
21353;DHT22;10834;52.268;6.770;2023-05-10T15:39:55;18.30;99.90
21353;DHT22;10834;52.268;6.770;2023-05-10T15:42:48;18.30;99.90
21353;DHT22;10834;52.268;6.770;2023-05-10T15:45:34;18.40;99.90
21353;DHT22;10834;52.268;6.770;2023-05-10T15:48:20;18.40;99.90
21353;DHT22;10834;52.268;6.770;2023-05-10T15:51:06;18.20;99.90
21353;DHT22;10834;52.268;6.770;2023-05-10T15:53:52;18.10;99.90
21353;DHT22;10834;52.268;6.770;2023-05-10T15:56:39;18.00;99.90
21353;DHT22;10834;52.268;6.770;2023-05-10T15:59:25;18.00;99.90
21353;DHT22;10834;52.268;6.770;2023-05-10T16:02:11;18.10;99.90
21353;DHT22;10834;52.268;6.770;2023-05-10T16:04:57;18.10;99.90
21353;DHT22;10834;52.268;6.770;2023-05-10T16:07:43;18.00;99.90
21353;DHT22;10834;52.268;6.770;2023-05-10T16:10:33;17.80;99.90
21353;DHT22;10834;52.268;6.770;2023-05-10T16:13:19;17.60;99.90
21353;DHT22;10834;52.268;6.770;2023-05-10T16:16:05;17.40;99.90
21353;DHT22;10834;52.268;6.770;2023-05-10T16:18:53;17.20;99.90
21353;DHT22;10834;52.268;6.770;2023-05-10T16:21:39;17.10;99.90
21353;DHT22;10834;52.268;6.770;2023-05-10T16:24:25;16.90;99.90
21353;DHT22;10834;52.268;6.770;2023-05-10T16:27:11;16.90;99.90
21353;DHT22;10834;52.268;6.770;2023-05-10T16:29:58;16.80;99.90
21353;DHT22;10834;52.268;6.770;2023-05-10T16:32:44;16.70;99.90
21353;DHT22;10834;52.268;6.770;2023-05-10T16:35:30;16.60;99.90
21353;DHT22;10834;52.268;6.770;2023-05-10T16:38:16;16.50;99.90
21353;DHT22;10834;52.268;6.770;2023-05-10T16:41:02;16.40;99.90
21353;DHT22;10834;52.268;6.770;2023-05-10T16:43:48;16.40;99.90
21353;DHT22;10834;52.268;6.770;2023-05-10T16:46:35;16.30;99.90
21353;DHT22;10834;52.268;6.770;2023-05-10T16:49:21;16.20;99.90
21353;DHT22;10834;52.268;6.770;2023-05-10T16:52:07;16.20;99.90
21353;DHT22;10834;52.268;6.770;2023-05-10T16:54:54;16.10;99.90
21353;DHT22;10834;52.268;6.770;2023-05-10T16:57:40;16.00;99.90
21353;DHT22;10834;52.268;6.770;2023-05-10T17:00:26;16.00;99.90
21353;DHT22;10834;52.268;6.770;2023-05-10T17:03:13;15.90;99.90
21353;DHT22;10834;52.268;6.770;2023-05-10T17:05:59;15.80;99.90
21353;DHT22;10834;52.268;6.770;2023-05-10T17:08:45;15.70;99.90
21353;DHT22;10834;52.268;6.770;2023-05-10T17:11:32;15.60;99.90
21353;DHT22;10834;52.268;6.770;2023-05-10T17:14:18;15.60;99.90
21353;DHT22;10834;52.268;6.770;2023-05-10T17:17:04;15.60;99.90
21353;DHT22;10834;52.268;6.770;2023-05-10T17:19:50;15.50;99.90
21353;DHT22;10834;52.268;6.770;2023-05-10T17:22:36;15.50;99.90
21353;DHT22;10834;52.268;6.770;2023-05-10T17:25:22;15.40;99.90
21353;DHT22;10834;52.268;6.770;2023-05-10T17:28:08;15.40;99.90
21353;DHT22;10834;52.268;6.770;2023-05-10T17:30:55;15.30;99.90
21353;DHT22;10834;52.268;6.770;2023-05-10T17:33:42;15.30;99.90
21353;DHT22;10834;52.268;6.770;2023-05-10T17:36:28;15.30;99.90
21353;DHT22;10834;52.268;6.770;2023-05-10T17:39:14;15.30;99.90
21353;DHT22;10834;52.268;6.770;2023-05-10T17:42:00;15.40;99.90
21353;DHT22;10834;52.268;6.770;2023-05-10T17:44:46;15.40;99.90
21353;DHT22;10834;52.268;6.770;2023-05-10T17:47:32;15.40;99.90
21353;DHT22;10834;52.268;6.770;2023-05-10T17:50:19;15.30;99.90
21353;DHT22;10834;52.268;6.770;2023-05-10T17:53:05;15.30;99.90
21353;DHT22;10834;52.268;6.770;2023-05-10T17:55:51;15.30;99.90
21353;DHT22;10834;52.268;6.770;2023-05-10T17:58:37;15.30;99.90
21353;DHT22;10834;52.268;6.770;2023-05-10T18:01:23;15.20;99.90
21353;DHT22;10834;52.268;6.770;2023-05-10T18:04:09;15.20;99.90
21353;DHT22;10834;52.268;6.770;2023-05-10T18:06:55;15.20;99.90
21353;DHT22;10834;52.268;6.770;2023-05-10T18:09:46;15.20;99.90